Time;durP1;ratioP1;P1;durP2;ratioP2;P2;SDS_P1;SDS_P2;PMS_P1;PMS_P2;Temp;Humidity;BMP_temperature;BMP_pressure;BME280_temperature;BME280_humidity;BME280_pressure;Samples;Min_cycle;Max_cycle;Signal;HPM_P1;HPM_P2
2023/07/16 00:03:57;;;;;;;5.13;3.88;;;22.70;99.90;;;;;;9917105;29;20296;-82
2023/07/16 00:09:19;;;;;;;5.70;4.00;;;22.70;99.90;;;;;;9933581;30;20225;-82
2023/07/16 00:14:40;;;;;;;5.18;3.90;;;22.60;99.90;;;;;;9924449;29;20272;-81
2023/07/16 00:20:01;;;;;;;12.02;4.53;;;22.70;99.90;;;;;;9921553;30;20201;-82
2023/07/16 00:25:23;;;;;;;6.35;4.50;;;22.60;99.90;;;;;;9933973;29;20257;-80
2023/07/16 00:30:44;;;;;;;5.47;3.90;;;22.60;99.90;;;;;;9944696;29;20301;-81
2023/07/16 00:36:05;;;;;;;5.88;3.92;;;22.50;99.90;;;;;;9932990;30;20209;-81
2023/07/16 00:41:27;;;;;;;5.82;4.22;;;22.50;99.90;;;;;;9920087;30;20228;-81
2023/07/16 00:46:49;;;;;;;5.95;4.57;;;22.40;99.90;;;;;;9937438;29;20265;-81
2023/07/16 00:52:18;;;;;;;6.03;4.40;;;22.40;99.90;;;;;;9966641;29;20244;-82
2023/07/16 00:57:39;;;;;;;5.43;4.50;;;22.40;99.90;;;;;;9957202;29;20197;-82
2023/07/16 01:03:03;;;;;;;6.40;4.68;;;22.30;99.90;;;;;;9967648;29;20437;-81
2023/07/16 01:08:41;;;;;;;8.32;4.45;;;22.30;99.90;;;;;;9967126;29;20220;-82
2023/07/16 01:14:03;;;;;;;5.50;4.40;;;22.20;99.90;;;;;;9958761;29;20282;-81
2023/07/16 01:19:24;;;;;;;5.93;4.25;;;22.20;99.90;;;;;;9967023;29;20253;-81
2023/07/16 01:25:19;;;;;;;5.20;4.35;;;22.20;99.90;;;;;;9943896;29;20281;-81
2023/07/16 01:30:43;;;;;;;5.90;4.53;;;22.30;99.90;;;;;;9945471;29;20205;-82
2023/07/16 01:36:07;;;;;;;6.78;4.78;;;22.30;99.90;;;;;;9959943;29;20216;-82
2023/07/16 01:41:29;;;;;;;6.00;5.15;;;22.40;99.90;;;;;;9968024;29;20257;-82
2023/07/16 01:47:11;;;;;;;6.65;5.13;;;22.40;99.90;;;;;;9980789;29;20197;-82
2023/07/16 01:52:32;;;;;;;6.22;4.95;;;22.40;99.90;;;;;;9945673;29;20245;-82
2023/07/16 01:57:53;;;;;;;4.88;4.35;;;22.40;99.90;;;;;;9930081;30;20258;-81
2023/07/16 02:03:15;;;;;;;5.88;4.55;;;22.40;99.90;;;;;;9917236;30;20213;-81
2023/07/16 02:08:36;;;;;;;5.55;4.95;;;22.40;99.90;;;;;;9929462;29;20212;-81
2023/07/16 02:13:57;;;;;;;7.88;4.55;;;22.40;99.90;;;;;;9916941;30;20233;-82
2023/07/16 02:19:19;;;;;;;6.72;4.85;;;22.30;99.90;;;;;;9904531;30;20387;-82
2023/07/16 02:24:41;;;;;;;5.70;4.75;;;22.30;99.90;;;;;;9929133;29;20217;-82
2023/07/16 02:30:03;;;;;;;8.38;5.50;;;22.20;99.90;;;;;;9952166;29;20212;-82
2023/07/16 02:35:24;;;;;;;5.20;4.28;;;22.20;99.90;;;;;;9976133;29;20239;-82
2023/07/16 02:40:46;;;;;;;7.13;4.90;;;22.20;99.90;;;;;;9929256;29;20201;-81
2023/07/16 02:46:07;;;;;;;8.85;5.57;;;22.20;99.90;;;;;;9916317;30;20207;-82
2023/07/16 02:51:29;;;;;;;5.40;4.90;;;22.30;99.90;;;;;;9932625;29;20240;-82
2023/07/16 02:56:50;;;;;;;6.03;5.43;;;22.30;99.90;;;;;;9915637;30;20293;-82
2023/07/16 03:02:11;;;;;;;7.15;5.68;;;22.20;99.90;;;;;;9928025;30;20385;-82
2023/07/16 03:07:33;;;;;;;8.50;4.97;;;22.10;99.90;;;;;;9931302;29;20523;-81
2023/07/16 03:12:54;;;;;;;7.07;5.35;;;22.10;1.00;;;;;;9940846;29;20558;-82
2023/07/16 03:18:18;;;;;;;7.70;5.85;;;22.00;1.00;;;;;;9930527;29;20212;-81
2023/07/16 03:23:39;;;;;;;7.22;5.28;;;22.00;1.00;;;;;;9927960;30;20198;-82
2023/07/16 03:29:01;;;;;;;8.35;5.35;;;;;;;;;;9949329;29;20224;-81
2023/07/16 03:34:23;;;;;;;7.35;5.00;;;;;;;;;;9950142;29;20423;-82
2023/07/16 03:39:45;;;;;;;5.47;4.68;;;;;;;;;;9915690;29;20202;-82
2023/07/16 03:45:07;;;;;;;5.80;4.85;;;;;;;;;;9934926;30;20213;-81
2023/07/16 03:50:29;;;;;;;6.78;5.80;;;;;;;;;;9947826;29;20216;-81
2023/07/16 03:55:51;;;;;;;6.82;5.85;;;;;;;;;;9947247;29;20233;-82
2023/07/16 04:01:12;;;;;;;8.30;5.40;;;;;;;;;;9947196;29;20231;-82
2023/07/16 04:06:35;;;;;;;6.82;5.20;;;;;;;;;;9936606;29;20295;-82
2023/07/16 04:11:57;;;;;;;5.55;4.60;;;;;;;;;;9946285;29;20235;-82
2023/07/16 04:17:19;;;;;;;8.95;5.28;;;;;;;;;;9908825;30;20207;-81
2023/07/16 04:22:40;;;;;;;7.65;5.38;;;;;;;;;;9927657;29;20265;-81
2023/07/16 04:28:03;;;;;;;6.85;4.95;;;;;;;;;;9954388;29;20209;-82
2023/07/16 04:33:25;;;;;;;6.30;5.35;;;;;;;;;;9958265;29;20243;-81
2023/07/16 04:38:46;;;;;;;6.38;4.95;;;;;;;;;;9943514;29;20510;-82
2023/07/16 04:44:08;;;;;;;6.40;5.10;;;;;;;;;;9970646;29;20284;-84
2023/07/16 04:49:30;;;;;;;5.53;4.95;;;;;;;;;;9967950;29;20188;-82
2023/07/16 04:54:51;;;;;;;8.63;5.18;;;;;;;;;;9935401;29;20285;-83
2023/07/16 05:00:13;;;;;;;7.97;5.07;;;;;;;;;;9932292;30;20200;-82
2023/07/16 05:05:34;;;;;;;6.03;5.43;;;;;;;;;;9932399;30;20208;-82
2023/07/16 05:10:56;;;;;;;7.97;5.32;;;;;;;;;;9947598;29;20209;-82
2023/07/16 05:16:18;;;;;;;10.43;6.07;;;;;;;;;;9918917;30;20408;-82
2023/07/16 05:21:41;;;;;;;7.82;5.18;;;;;;;;;;9921932;29;20211;-82
2023/07/16 05:27:02;;;;;;;8.57;6.03;;;;;;;;;;9944965;29;20242;-82
2023/07/16 05:32:24;;;;;;;7.78;6.18;;;;;;;;;;9918767;30;20229;-81
2023/07/16 05:37:45;;;;;;;8.85;6.30;;;;;;;;;;9921328;29;20224;-82
2023/07/16 05:43:07;;;;;;;11.25;7.38;;;;;;;;;;9918510;30;20445;-82
2023/07/16 05:48:28;;;;;;;7.03;6.00;;;;;;;;;;9918251;30;20556;-82
2023/07/16 05:53:50;;;;;;;7.13;5.90;;;;;;;;;;9938941;29;20283;-82
2023/07/16 05:59:12;;;;;;;7.15;5.43;;;;;;;;;;9917466;30;20229;-82
2023/07/16 06:04:33;;;;;;;9.18;5.30;;;25.50;1.00;;;;;;9916643;29;20208;-82
2023/07/16 06:09:54;;;;;;;7.18;5.60;;;24.30;1.00;;;;;;9917138;30;20213;-82
2023/07/16 06:15:15;;;;;;;7.63;5.43;;;24.30;1.00;;;;;;9929112;29;20232;-82
2023/07/16 06:20:37;;;;;;;5.32;4.55;;;24.60;99.90;;;;;;9932608;29;20204;-81
2023/07/16 06:25:58;;;;;;;5.88;5.00;;;24.70;99.90;;;;;;9909665;29;20231;-82
2023/07/16 06:31:20;;;;;;;6.88;4.30;;;;;;;;;;9955899;29;20204;-82
2023/07/16 06:36:41;;;;;;;5.13;4.30;;;25.20;99.90;;;;;;9954248;29;20222;-82
2023/07/16 06:42:02;;;;;;;4.57;4.10;;;25.60;99.90;;;;;;9928604;29;20412;-81
2023/07/16 06:47:24;;;;;;;8.05;3.65;;;25.90;99.90;;;;;;9931001;29;20205;-82
2023/07/16 06:52:45;;;;;;;4.25;3.55;;;26.40;99.90;;;;;;9946253;29;20245;-81
2023/07/16 06:58:10;;;;;;;8.32;4.40;;;26.90;99.90;;;;;;9928514;30;20256;-81
2023/07/16 07:03:35;;;;;;;7.03;3.30;;;27.60;99.90;;;;;;9929216;30;20274;-82
2023/07/16 07:08:57;;;;;;;3.83;3.50;;;;;;;;;;9937898;29;20213;-83
2023/07/16 07:14:18;;;;;;;3.60;3.05;;;28.60;99.90;;;;;;9940250;29;20237;-82
2023/07/16 07:19:39;;;;;;;7.45;3.47;;;29.20;99.90;;;;;;9943366;29;20200;-82
2023/07/16 07:25:00;;;;;;;5.97;3.58;;;29.50;99.90;;;;;;9915126;30;20291;-82
2023/07/16 07:30:22;;;;;;;4.68;2.20;;;29.90;99.90;;;;;;9948220;29;20506;-82
2023/07/16 07:35:43;;;;;;;4.03;3.05;;;29.90;99.90;;;;;;9962749;29;20232;-82
2023/07/16 07:41:06;;;;;;;4.80;2.40;;;30.00;99.90;;;;;;9977461;29;20286;-82
2023/07/16 07:46:27;;;;;;;6.70;2.70;;;29.40;99.90;;;;;;9954268;29;20208;-82
2023/07/16 07:51:49;;;;;;;2.85;2.63;;;28.70;99.90;;;;;;9965374;29;20224;-82
2023/07/16 07:57:10;;;;;;;3.85;2.60;;;28.30;99.90;;;;;;9976352;29;20244;-82
2023/07/16 08:02:31;;;;;;;3.65;2.60;;;28.30;99.90;;;;;;9938648;29;20213;-82
2023/07/16 08:07:53;;;;;;;4.10;2.80;;;28.00;99.90;;;;;;9947359;29;20590;-82
2023/07/16 08:13:14;;;;;;;3.13;2.83;;;28.00;99.90;;;;;;9926323;30;20249;-82
2023/07/16 08:18:35;;;;;;;3.15;2.85;;;28.10;99.90;;;;;;9939491;29;20208;-83
2023/07/16 08:23:57;;;;;;;4.75;2.53;;;28.00;99.90;;;;;;9945511;29;20212;-82
2023/07/16 08:29:18;;;;;;;3.35;2.38;;;27.90;99.90;;;;;;9968467;29;20219;-82
2023/07/16 08:34:39;;;;;;;2.80;2.30;;;27.70;99.90;;;;;;9957672;29;20277;-82
2023/07/16 08:40:01;;;;;;;2.55;2.35;;;27.50;99.90;;;;;;9974085;29;20450;-82
2023/07/16 08:45:25;;;;;;;5.82;2.47;;;27.40;99.90;;;;;;9945911;29;20205;-83
2023/07/16 08:50:48;;;;;;;2.90;2.60;;;27.30;99.90;;;;;;9920352;30;20251;-82
2023/07/16 08:56:09;;;;;;;4.47;2.88;;;27.00;99.90;;;;;;9935223;29;20253;-82
2023/07/16 09:01:31;;;;;;;2.85;2.65;;;26.80;99.90;;;;;;9946988;29;20277;-83
2023/07/16 09:06:53;;;;;;;3.00;2.50;;;26.70;99.90;;;;;;9968989;29;20204;-82
2023/07/16 09:12:14;;;;;;;2.70;2.00;;;26.60;99.90;;;;;;9964008;29;20447;-83
2023/07/16 09:17:37;;;;;;;5.55;2.45;;;26.40;99.90;;;;;;9981761;29;20433;-83
2023/07/16 09:22:59;;;;;;;2.75;2.33;;;26.10;99.90;;;;;;9981461;29;20391;-82
2023/07/16 09:28:22;;;;;;;2.58;2.33;;;26.20;99.90;;;;;;9977498;29;20208;-82
2023/07/16 09:33:46;;;;;;;2.60;2.10;;;26.20;99.90;;;;;;9969609;29;20494;-82
2023/07/16 09:39:08;;;;;;;3.42;2.20;;;26.30;99.90;;;;;;9944757;29;20201;-82
2023/07/16 09:44:31;;;;;;;5.22;2.38;;;26.40;99.90;;;;;;9940608;29;20244;-82
2023/07/16 09:49:52;;;;;;;3.47;2.20;;;26.50;99.90;;;;;;9930690;30;20380;-82
2023/07/16 09:55:14;;;;;;;2.58;2.30;;;26.40;99.90;;;;;;9933015;29;20252;-82
2023/07/16 10:00:37;;;;;;;2.53;2.03;;;26.60;99.90;;;;;;9943768;29;20571;-82
2023/07/16 10:06:08;;;;;;;2.35;1.63;;;27.10;99.90;;;;;;9980130;29;20209;-82
2023/07/16 10:11:37;;;;;;;4.50;2.03;;;27.30;99.90;;;;;;9953707;29;20209;-82
2023/07/16 10:17:02;;;;;;;2.55;2.25;;;27.40;99.90;;;;;;9942125;29;20350;-82
2023/07/16 10:22:31;;;;;;;2.00;1.77;;;27.10;99.90;;;;;;9929040;29;20273;-82
2023/07/16 10:27:54;;;;;;;2.13;1.92;;;26.70;99.90;;;;;;9958482;29;20207;-83
2023/07/16 10:33:16;;;;;;;3.00;2.45;;;26.40;99.90;;;;;;9941495;29;20539;-81
2023/07/16 10:38:42;;;;;;;3.63;2.55;;;26.30;99.90;;;;;;9941786;29;20207;-82
2023/07/16 10:44:04;;;;;;;3.83;2.50;;;26.30;99.90;;;;;;9941122;29;20546;-81
2023/07/16 10:49:29;;;;;;;3.08;2.50;;;26.10;99.90;;;;;;9952438;29;20231;-83
2023/07/16 10:54:54;;;;;;;4.95;3.22;;;;;;;;;;9978447;29;20343;-82
2023/07/16 11:00:17;;;;;;;4.32;3.38;;;26.00;1.00;;;;;;9954153;29;20205;-82
2023/07/16 11:05:38;;;;;;;2.80;2.50;;;26.20;1.00;;;;;;9965346;29;20237;-82
2023/07/16 11:10:59;;;;;;;2.42;2.20;;;26.80;1.00;;;;;;9952433;29;20204;-82
2023/07/16 11:16:21;;;;;;;4.45;2.67;;;27.30;1.00;;;;;;9936572;29;20233;-82
2023/07/16 11:21:42;;;;;;;2.67;2.35;;;27.50;1.00;;;;;;9940638;29;20253;-82
2023/07/16 11:27:04;;;;;;;3.22;2.50;;;27.90;1.00;;;;;;9935928;29;20208;-82
2023/07/16 11:32:47;;;;;;;3.22;2.47;;;28.40;99.90;;;;;;9945367;29;20260;-83
2023/07/16 11:38:08;;;;;;;2.55;2.30;;;29.20;99.90;;;;;;9927085;30;20279;-82
2023/07/16 11:43:37;;;;;;;4.60;2.60;;;29.00;99.90;;;;;;9915227;29;20201;-82
2023/07/16 11:48:58;;;;;;;12.02;3.33;;;28.90;99.90;;;;;;9957077;29;20304;-80
2023/07/16 11:54:20;;;;;;;3.35;2.30;;;28.80;99.90;;;;;;9939478;29;20245;-83
2023/07/16 11:59:41;;;;;;;2.67;2.40;;;28.60;99.90;;;;;;9929858;29;20295;-82
2023/07/16 12:05:03;;;;;;;3.53;2.72;;;28.10;99.90;;;;;;9946301;29;20212;-83
2023/07/16 12:10:24;;;;;;;3.58;2.80;;;28.20;99.90;;;;;;9921573;29;20575;-83
2023/07/16 12:15:45;;;;;;;4.13;2.35;;;28.10;99.90;;;;;;9924096;29;20253;-82
2023/07/16 12:21:07;;;;;;;2.65;2.28;;;28.90;99.90;;;;;;9934047;30;20193;-83
2023/07/16 12:26:28;;;;;;;2.80;2.30;;;29.00;99.90;;;;;;9924906;29;20204;-83
2023/07/16 12:31:49;;;;;;;3.97;2.58;;;28.90;99.90;;;;;;9970068;29;20288;-83
2023/07/16 12:37:11;;;;;;;5.28;2.35;;;29.30;99.90;;;;;;9970506;29;20224;-83
2023/07/16 12:42:32;;;;;;;2.83;2.20;;;29.50;99.90;;;;;;9969790;29;20228;-82
2023/07/16 12:47:54;;;;;;;2.38;1.98;;;29.00;99.90;;;;;;9947562;29;20296;-83
2023/07/16 12:53:15;;;;;;;2.70;2.30;;;29.00;99.90;;;;;;9932153;30;20439;-83
2023/07/16 12:58:36;;;;;;;3.53;2.28;;;28.90;99.90;;;;;;9935775;29;20221;-82
2023/07/16 13:03:58;;;;;;;2.60;2.10;;;29.00;99.90;;;;;;9958270;29;20201;-82
2023/07/16 13:09:19;;;;;;;3.30;2.20;;;28.80;99.90;;;;;;9964617;29;20222;-83
2023/07/16 13:14:40;;;;;;;3.00;2.00;;;28.60;99.90;;;;;;9956794;29;20241;-83
2023/07/16 13:20:03;;;;;;;1.85;1.70;;;28.90;99.90;;;;;;9930719;29;20209;-84
2023/07/16 13:25:24;;;;;;;2.38;2.00;;;29.10;99.90;;;;;;9931654;29;20209;-83
2023/07/16 13:30:45;;;;;;;1.90;1.80;;;29.10;99.90;;;;;;9963624;29;20232;-82
2023/07/16 13:36:07;;;;;;;2.15;1.88;;;28.70;99.90;;;;;;9930557;29;20232;-84
2023/07/16 13:41:28;;;;;;;3.15;2.20;;;28.30;99.90;;;;;;9930720;29;20204;-83
2023/07/16 13:46:49;;;;;;;1.77;1.67;;;28.20;99.90;;;;;;9969210;29;20220;-83
2023/07/16 13:52:11;;;;;;;2.25;1.98;;;28.00;99.90;;;;;;9968059;29;20674;-82
2023/07/16 13:57:32;;;;;;;2.28;2.00;;;27.80;99.90;;;;;;9979251;29;20239;-82
2023/07/16 14:02:53;;;;;;;2.10;1.80;;;27.80;99.90;;;;;;9980104;29;20211;-82
2023/07/16 14:08:15;;;;;;;4.70;2.03;;;27.80;99.90;;;;;;9980424;29;20283;-82
2023/07/16 14:13:36;;;;;;;1.83;1.70;;;28.00;99.90;;;;;;9953102;29;20414;-83
2023/07/16 14:18:58;;;;;;;4.72;2.35;;;28.00;99.90;;;;;;9929177;29;20284;-82
2023/07/16 14:24:19;;;;;;;2.25;1.90;;;27.90;99.90;;;;;;9916128;29;20223;-82
2023/07/16 14:29:40;;;;;;;2.53;1.60;;;27.80;99.90;;;;;;9953234;29;20204;-82
2023/07/16 14:35:08;;;;;;;4.38;2.00;;;27.70;99.90;;;;;;9953798;29;20790;-82
2023/07/16 14:40:33;;;;;;;2.33;1.90;;;27.70;99.90;;;;;;9965571;29;20265;-82
2023/07/16 14:45:54;;;;;;;2.35;1.75;;;27.50;99.90;;;;;;9948101;29;20216;-82
2023/07/16 14:51:15;;;;;;;2.08;1.70;;;27.40;99.90;;;;;;9965174;29;20444;-83
2023/07/16 14:56:37;;;;;;;2.78;2.00;;;27.40;1.00;;;;;;9959955;29;20280;-82
2023/07/16 15:01:58;;;;;;;2.22;1.73;;;27.50;1.00;;;;;;9951070;29;20283;-83
2023/07/16 15:07:20;;;;;;;2.10;1.88;;;27.70;51.70;;;;;;9965067;29;20259;-82
2023/07/16 15:12:41;;;;;;;2.70;1.98;;;28.00;1.00;;;;;;9951588;29;20228;-83
2023/07/16 15:18:03;;;;;;;4.22;2.03;;;28.00;99.90;;;;;;9945249;29;20213;-82
2023/07/16 15:23:26;;;;;;;2.13;1.90;;;28.10;99.90;;;;;;9926918;30;20342;-82
2023/07/16 15:28:47;;;;;;;4.47;1.90;;;28.10;99.90;;;;;;9934482;29;20216;-82
2023/07/16 15:34:08;;;;;;;3.95;1.98;;;28.10;99.90;;;;;;9979260;29;20227;-82
2023/07/16 15:39:30;;;;;;;2.25;2.05;;;28.10;99.90;;;;;;9975672;29;20211;-82
2023/07/16 15:44:51;;;;;;;2.13;1.92;;;28.10;99.90;;;;;;9964641;29;20217;-82
2023/07/16 15:50:13;;;;;;;3.22;2.00;;;27.90;99.90;;;;;;9916274;29;20201;-82
2023/07/16 15:55:34;;;;;;;2.75;1.95;;;27.80;99.90;;;;;;9926118;29;20255;-83
2023/07/16 16:00:56;;;;;;;2.47;2.05;;;27.70;99.90;;;;;;9931568;29;20398;-82
2023/07/16 16:06:17;;;;;;;2.40;2.15;;;27.60;1.00;;;;;;9945594;29;20288;-82
2023/07/16 16:11:38;;;;;;;2.10;1.80;;;27.50;99.90;;;;;;9944015;29;20205;-82
2023/07/16 16:17:00;;;;;;;3.83;1.73;;;27.30;99.90;;;;;;9916563;29;20232;-82
2023/07/16 16:22:25;;;;;;;2.95;1.98;;;27.10;99.90;;;;;;9944543;29;20222;-82
2023/07/16 16:27:46;;;;;;;2.67;2.08;;;26.80;99.90;;;;;;9939531;29;20208;-82
2023/07/16 16:33:09;;;;;;;2.22;1.98;;;26.60;99.90;;;;;;9959555;29;20232;-83
2023/07/16 16:38:30;;;;;;;4.93;2.60;;;26.50;99.90;;;;;;9961643;29;20213;-83
2023/07/16 16:43:52;;;;;;;3.55;2.70;;;26.30;99.90;;;;;;9963283;29;20217;-82
2023/07/16 16:49:13;;;;;;;5.53;2.13;;;26.10;99.90;;;;;;9967006;29;20213;-81
2023/07/16 16:54:36;;;;;;;6.68;2.65;;;;;;;;;;9935644;29;20261;-81
2023/07/16 16:59:58;;;;;;;4.82;2.67;;;25.30;99.90;;;;;;9919664;29;20201;-82
2023/07/16 17:05:19;;;;;;;3.00;2.30;;;24.80;99.90;;;;;;9941943;29;20208;-81
2023/07/16 17:10:41;;;;;;;5.35;3.13;;;24.50;1.00;;;;;;9968505;29;20208;-81
2023/07/16 17:16:02;;;;;;;4.30;2.50;;;24.30;1.00;;;;;;9981280;29;20293;-81
2023/07/16 17:21:26;;;;;;;4.05;3.20;;;24.00;99.90;;;;;;9954359;29;20211;-80
2023/07/16 17:26:47;;;;;;;4.68;3.17;;;24.00;1.00;;;;;;9997174;29;20236;-80
2023/07/16 17:32:09;;;;;;;4.88;3.00;;;24.00;99.90;;;;;;9962226;29;20208;-83
2023/07/16 17:37:31;;;;;;;8.50;2.70;;;24.10;99.90;;;;;;9961515;29;20236;-82
2023/07/16 17:42:54;;;;;;;5.03;2.95;;;23.90;1.00;;;;;;9918718;30;20213;-82
2023/07/16 17:48:15;;;;;;;10.20;6.75;;;23.80;99.90;;;;;;9935155;29;20217;-80
2023/07/16 17:53:37;;;;;;;6.07;3.13;;;;;;;;;;9921209;29;20348;-82
2023/07/16 17:58:58;;;;;;;4.40;3.65;;;23.40;99.90;;;;;;9916644;29;20234;-82
2023/07/16 18:04:19;;;;;;;4.97;3.30;;;;;;;;;;9942321;29;20204;-82
2023/07/16 18:09:41;;;;;;;4.40;2.60;;;23.30;92.30;;;;;;9949206;29;20221;-82
2023/07/16 18:15:03;;;;;;;4.97;2.78;;;23.10;83.20;;;;;;9929893;30;20924;-83
2023/07/16 18:20:24;;;;;;;4.10;2.83;;;22.90;99.90;;;;;;9918028;29;20232;-82
2023/07/16 18:25:46;;;;;;;2.42;1.95;;;;;;;;;;9931388;29;20225;-81
2023/07/16 18:31:08;;;;;;;5.40;2.30;;;22.80;99.90;;;;;;9932771;29;20215;-82
2023/07/16 18:36:32;;;;;;;3.75;2.38;;;;;;;;;;9964442;29;20250;-82
2023/07/16 18:41:53;;;;;;;3.85;2.60;;;22.70;99.90;;;;;;9966151;29;20235;-82
2023/07/16 18:47:14;;;;;;;4.22;2.67;;;22.50;1.00;;;;;;9965639;29;20398;-82
2023/07/16 18:52:36;;;;;;;7.90;3.10;;;22.30;1.00;;;;;;9965713;29;20205;-82
2023/07/16 18:57:57;;;;;;;3.88;2.33;;;22.40;1.00;;;;;;9915403;30;20241;-81
2023/07/16 19:03:19;;;;;;;4.30;2.88;;;22.00;1.00;;;;;;9917204;29;20205;-82
2023/07/16 19:08:40;;;;;;;4.05;2.53;;;21.90;1.00;;;;;;9930291;29;20394;-82
2023/07/16 19:14:02;;;;;;;4.80;2.38;;;;;;;;;;9959832;29;20243;-82
2023/07/16 19:19:24;;;;;;;6.22;2.75;;;21.30;1.00;;;;;;9965143;29;20394;-82
2023/07/16 19:24:45;;;;;;;6.97;2.50;;;21.20;1.00;;;;;;9973369;29;20212;-82
2023/07/16 19:30:07;;;;;;;4.80;2.03;;;21.10;6.80;;;;;;9961096;29;20205;-82
2023/07/16 19:35:28;;;;;;;3.55;1.90;;;20.90;1.00;;;;;;9964373;29;20526;-81
2023/07/16 19:40:52;;;;;;;4.25;2.65;;;;;;;;;;9963739;29;20204;-81
2023/07/16 19:46:13;;;;;;;5.13;2.58;;;20.90;99.90;;;;;;9947319;29;20221;-82
2023/07/16 19:51:34;;;;;;;5.32;2.35;;;20.80;99.90;;;;;;9926333;29;20205;-81
2023/07/16 19:56:56;;;;;;;4.72;2.30;;;;;;;;;;9929198;29;20275;-81
2023/07/16 20:02:18;;;;;;;4.10;2.60;;;;;;;;;;9926258;30;20194;-82
2023/07/16 20:07:42;;;;;;;9.75;3.03;;;20.50;99.90;;;;;;9913851;30;20204;-81
2023/07/16 20:13:03;;;;;;;5.28;2.55;;;20.30;1.00;;;;;;9930314;29;20270;-82
2023/07/16 20:18:24;;;;;;;5.72;2.30;;;20.20;1.00;;;;;;9926231;29;20205;-81
2023/07/16 20:23:47;;;;;;;4.25;2.47;;;20.20;1.00;;;;;;9944617;29;20216;-81
2023/07/16 20:29:08;;;;;;;5.10;2.97;;;20.10;1.00;;;;;;9955596;29;20269;-81
2023/07/16 20:34:30;;;;;;;4.25;2.50;;;20.00;99.90;;;;;;9957419;29;20493;-81
2023/07/16 20:39:51;;;;;;;5.57;2.92;;;19.90;1.00;;;;;;9959659;29;20499;-81
2023/07/16 20:45:16;;;;;;;6.07;2.72;;;19.90;99.90;;;;;;9968618;29;20207;-81
2023/07/16 20:50:37;;;;;;;5.00;2.80;;;19.80;1.00;;;;;;9970058;29;20201;-81
2023/07/16 20:55:58;;;;;;;2.80;2.15;;;19.70;99.90;;;;;;9965386;29;20241;-81
2023/07/16 21:01:20;;;;;;;3.83;2.38;;;19.70;1.00;;;;;;9965383;29;20495;-81
2023/07/16 21:06:41;;;;;;;7.70;2.58;;;19.60;1.00;;;;;;9969590;29;20495;-81
2023/07/16 21:12:03;;;;;;;3.92;2.25;;;19.40;1.00;;;;;;9954693;29;20213;-82
2023/07/16 21:17:24;;;;;;;3.58;2.17;;;19.30;1.00;;;;;;9931604;30;20260;-81
2023/07/16 21:22:45;;;;;;;6.10;2.78;;;19.30;1.00;;;;;;9939138;29;20196;-82
2023/07/16 21:28:09;;;;;;;4.38;2.28;;;19.30;1.00;;;;;;9984737;29;20206;-81
2023/07/16 21:33:31;;;;;;;3.00;1.88;;;19.20;1.00;;;;;;9976445;29;20215;-81
2023/07/16 21:38:52;;;;;;;3.53;2.47;;;19.20;99.90;;;;;;10005619;29;20200;-81
2023/07/16 21:44:14;;;;;;;4.05;2.20;;;19.20;15.50;;;;;;9968995;29;20268;-81
2023/07/16 21:49:35;;;;;;;5.20;2.60;;;19.20;1.00;;;;;;9980826;29;20200;-81
2023/07/16 21:54:57;;;;;;;3.58;2.20;;;19.20;1.00;;;;;;9968206;29;20240;-81
2023/07/16 22:00:21;;;;;;;8.15;3.08;;;19.10;1.00;;;;;;9966208;29;20433;-81
2023/07/16 22:05:43;;;;;;;4.90;2.53;;;19.10;1.00;;;;;;9968139;29;20432;-81
2023/07/16 22:11:04;;;;;;;5.03;2.63;;;19.00;1.00;;;;;;9953611;29;20204;-82
2023/07/16 22:16:26;;;;;;;4.15;2.25;;;19.00;1.00;;;;;;9944280;29;20244;-83
2023/07/16 22:21:48;;;;;;;3.22;2.08;;;18.90;1.00;;;;;;9928899;29;20220;-81
2023/07/16 22:27:09;;;;;;;3.00;2.20;;;18.80;1.00;;;;;;9931566;29;20240;-81
2023/07/16 22:32:31;;;;;;;5.25;2.17;;;18.80;99.90;;;;;;9954793;29;20232;-81
2023/07/16 22:37:52;;;;;;;4.13;2.22;;;18.70;1.00;;;;;;9939186;29;20241;-81
2023/07/16 22:43:14;;;;;;;4.20;2.20;;;18.70;1.00;;;;;;9928789;30;20571;-81
2023/07/16 22:48:39;;;;;;;3.63;2.22;;;18.70;1.00;;;;;;9931482;29;20459;-81
2023/07/16 22:54:02;;;;;;;2.55;1.92;;;18.70;99.90;;;;;;9914853;30;20295;-81
2023/07/16 22:59:24;;;;;;;2.90;2.35;;;18.80;1.00;;;;;;9917231;29;20374;-81
2023/07/16 23:04:45;;;;;;;3.17;2.20;;;18.80;99.90;;;;;;9930991;29;20236;-80
2023/07/16 23:10:08;;;;;;;4.00;2.25;;;18.70;99.90;;;;;;9913623;30;20205;-81
2023/07/16 23:15:29;;;;;;;2.42;2.00;;;18.80;99.90;;;;;;9926025;30;20242;-81
2023/07/16 23:20:51;;;;;;;4.82;1.85;;;18.70;91.20;;;;;;9931146;29;20379;-81
2023/07/16 23:26:12;;;;;;;3.53;1.92;;;18.70;19.40;;;;;;9925495;30;20211;-81
2023/07/16 23:31:33;;;;;;;2.40;1.80;;;18.70;99.90;;;;;;9951179;29;20253;-81
2023/07/16 23:36:55;;;;;;;2.30;1.90;;;18.70;99.90;;;;;;9950292;29;20559;-81
2023/07/16 23:42:16;;;;;;;3.20;1.80;;;18.70;1.00;;;;;;9925539;30;20246;-81
2023/07/16 23:47:38;;;;;;;4.15;1.95;;;18.70;1.00;;;;;;9928272;29;20223;-80
2023/07/16 23:52:59;;;;;;;3.97;2.38;;;18.60;1.00;;;;;;9870831;29;1257293;-81
2023/07/16 23:58:20;;;;;;;3.42;1.73;;;18.60;1.00;;;;;;9930649;29;20429;-81
